Time;durP1;ratioP1;P1;durP2;ratioP2;P2;SDS_P1;SDS_P2;PMS_P1;PMS_P2;Temp;Humidity;BMP_temperature;BMP_pressure;BME280_temperature;BME280_humidity;BME280_pressure;Samples;Min_cycle;Max_cycle;Signal;HPM_P1;HPM_P2
2021/05/02 00:00:27;;;;;;;20.10;8.38;;;;;;;;;;5119369;28;20072;-83
2021/05/02 00:02:54;;;;;;;24.08;9.40;;;;;;;;;;5119196;28;20437;-81
2021/05/02 00:05:21;;;;;;;24.40;9.02;;;;;;;;;;5118182;28;20028;-81
2021/05/02 00:07:47;;;;;;;16.75;6.47;;;;;;;;;;5119205;28;20043;-80
2021/05/02 00:10:15;;;;;;;14.35;7.07;;;;;;;;;;5119506;28;20050;-82
2021/05/02 00:12:41;;;;;;;13.90;5.25;;;;;;;;;;5117813;28;20039;-82
2021/05/02 00:15:09;;;;;;;11.55;4.60;;;;;;;;;;5119576;28;20043;-82
2021/05/02 00:17:40;;;;;;;10.77;4.63;;;;;;;;;;5119229;28;20109;-83
2021/05/02 00:20:08;;;;;;;14.45;4.65;;;;;;;;;;5119434;28;20023;-82
2021/05/02 00:22:35;;;;;;;10.30;4.13;;;;;;;;;;5118850;28;20027;-82
2021/05/02 00:25:10;;;;;;;8.93;4.20;;;;;;;;;;5119069;28;20069;-82
2021/05/02 00:27:37;;;;;;;12.32;4.50;;;;;;;;;;5117662;28;20035;-83
2021/05/02 00:30:06;;;;;;;9.52;4.35;;;;;;;;;;5117145;28;20027;-82
2021/05/02 00:32:33;;;;;;;10.82;4.28;;;;;;;;;;5119226;28;20062;-84
2021/05/02 00:34:59;;;;;;;7.38;3.50;;;;;;;;;;5118170;28;20034;-84
2021/05/02 00:37:25;;;;;;;13.40;4.55;;;;;;;;;;5118906;28;20035;-84
2021/05/02 00:39:51;;;;;;;9.70;4.43;;;;;;;;;;5119095;28;20020;-85
2021/05/02 00:42:20;;;;;;;12.95;4.50;;;;;;;;;;5119259;28;20103;-85
2021/05/02 00:44:48;;;;;;;11.68;4.40;;;;;;;;;;5117653;28;20067;-85
2021/05/02 00:47:19;;;;;;;8.70;3.90;;;;;;;;;;5118921;28;20019;-85
2021/05/02 00:49:52;;;;;;;11.07;4.35;;;;;;;;;;5118976;28;20422;-85
2021/05/02 00:52:28;;;;;;;8.30;3.55;;;;;;;;;;5118932;28;20102;-85
2021/05/02 00:55:02;;;;;;;10.85;3.13;;;;;;;;;;5119110;28;20035;-85
2021/05/02 00:57:30;;;;;;;9.57;3.67;;;;;;;;;;5118743;28;20024;-85
2021/05/02 01:00:10;;;;;;;6.90;3.13;;;;;;;;;;5118631;28;20023;-85
2021/05/02 01:02:37;;;;;;;7.78;2.90;;;;;;;;;;5118682;28;20035;-85
2021/05/02 01:05:04;;;;;;;10.35;3.17;;;;;;;;;;5118488;28;20024;-84
2021/05/02 01:07:41;;;;;;;9.38;3.22;;;;;;;;;;5118665;28;20016;-85
2021/05/02 01:10:18;;;;;;;7.82;3.65;;;;;;;;;;5117508;28;20023;-84
2021/05/02 01:12:51;;;;;;;9.90;3.25;;;;;;;;;;5118397;28;20412;-80
2021/05/02 01:15:23;;;;;;;9.60;2.95;;;;;;;;;;5118305;28;20127;-82
2021/05/02 01:18:09;;;;;;;7.30;3.30;;;;;;;;;;5116471;28;20035;-81
2021/05/02 01:20:41;;;;;;;8.95;2.65;;;;;;;;;;5117811;28;20314;-83
2021/05/02 01:23:08;;;;;;;;;;;;;;;;;;5118527;28;20431;-83
2021/05/02 01:25:34;;;;;;;9.60;3.00;;;;;;;;;;5118025;27;19945;-83
2021/05/02 01:28:02;;;;;;;9.05;2.72;;;;;;;;;;5116909;28;20020;-83
2021/05/02 01:30:28;;;;;;;7.13;2.75;;;;;;;;;;5118337;28;20030;-83
2021/05/02 01:32:55;;;;;;;8.80;4.03;;;;;;;;;;5117930;28;20023;-83
2021/05/02 01:35:21;;;;;;;10.15;3.05;;;;;;;;;;5117832;28;20032;-85
2021/05/02 01:37:48;;;;;;;6.88;2.33;;;;;;;;;;5118146;28;20030;-84
2021/05/02 01:40:15;;;;;;;8.18;3.10;;;;;;;;;;5117496;28;20019;-81
2021/05/02 01:42:41;;;;;;;11.18;3.60;;;;;;;;;;5116659;28;20031;-81
2021/05/02 01:45:08;;;;;;;8.57;3.60;;;;;;;;;;5117280;28;20044;-81
2021/05/02 01:47:39;;;;;;;10.93;3.60;;;;;;;;;;5117595;28;20019;-81
2021/05/02 01:50:06;;;;;;;8.63;3.23;;;;;;;;;;5116692;28;20436;-83
2021/05/02 01:52:35;;;;;;;14.23;4.57;;;;;;;;;;5117534;28;20106;-82
2021/05/02 01:55:02;;;;;;;8.23;4.20;;;;;;;;;;5117536;28;20344;-81
2021/05/02 01:57:30;;;;;;;9.55;4.43;;;;;;;;;;5117767;28;20024;-81
2021/05/02 02:00:00;;;;;;;8.82;4.10;;;;;;;;;;5117701;28;20020;-81
2021/05/02 02:02:27;;;;;;;10.55;3.38;;;;;;;;;;5117519;28;20039;-81
2021/05/02 02:04:55;;;;;;;8.45;3.97;;;;;;;;;;5117420;28;20049;-82
2021/05/02 02:07:21;;;;;;;6.70;2.75;;;;;;;;;;5116521;28;20020;-82
2021/05/02 02:09:47;;;;;;;7.80;2.20;;;;;;;;;;5117594;28;20055;-82
2021/05/02 02:12:13;;;;;;;4.75;2.08;;;;;;;;;;5117727;28;20019;-82
2021/05/02 02:14:40;;;;;;;5.13;1.70;;;;;;;;;;5117414;28;20031;-82
2021/05/02 02:17:08;;;;;;;4.75;2.10;;;;;;;;;;5116367;28;20123;-81
2021/05/02 02:19:34;;;;;;;7.32;2.13;;;;;;;;;;5116372;28;20031;-81
2021/05/02 02:22:01;;;;;;;6.03;2.00;;;;;;;;;;5117287;28;20019;-80
2021/05/02 02:24:41;;;;;;;5.10;1.88;;;;;;;;;;5117128;28;20057;-80
2021/05/02 02:27:08;;;;;;;6.20;1.63;;;;;;;;;;5117427;28;20287;-80
2021/05/02 02:29:36;;;;;;;7.65;2.17;;;;;;;;;;5116965;28;20026;-80
2021/05/02 02:32:04;;;;;;;5.70;1.80;;;;;;;;;;5117203;28;20040;-82
2021/05/02 02:34:33;;;;;;;11.38;4.13;;;;;;;;;;5117309;28;20035;-82
2021/05/02 02:36:59;;;;;;;7.93;2.75;;;;;;;;;;5116175;28;20349;-81
2021/05/02 02:39:25;;;;;;;4.25;2.22;;;;;;;;;;5117356;28;20114;-83
2021/05/02 02:41:52;;;;;;;6.35;2.30;;;;;;;;;;5117392;28;20024;-82
2021/05/02 02:44:20;;;;;;;4.90;2.38;;;;;;;;;;5116025;28;20055;-82
2021/05/02 02:46:48;;;;;;;5.05;1.75;;;;;;;;;;5117099;28;20024;-82
2021/05/02 02:49:14;;;;;;;5.13;2.03;;;;;;;;;;5117121;28;20019;-82
2021/05/02 02:51:41;;;;;;;7.90;2.53;;;;;;;;;;5117469;28;20020;-79
2021/05/02 02:54:09;;;;;;;11.15;3.83;;;;;;;;;;5120672;28;20023;-80
2021/05/02 02:56:37;;;;;;;7.57;3.08;;;;;;;;;;5119328;28;20126;-82
2021/05/02 02:59:04;;;;;;;6.82;2.50;;;;;;;;;;5120886;28;20019;-81
2021/05/02 03:01:30;;;;;;;4.55;2.95;;;;;;;;;;5120704;28;20102;-84
2021/05/02 03:04:02;;;;;;;5.72;3.30;;;;;;;;;;5119793;28;20023;-81
2021/05/02 03:06:29;;;;;;;7.32;2.15;;;;;;;;;;5082348;28;20802;-81
2021/05/02 03:08:56;;;;;;;3.80;2.13;;;;;;;;;;5098388;28;20039;-83
2021/05/02 03:11:22;;;;;;;5.85;1.50;;;;;;;;;;5100305;28;20020;-82
2021/05/02 03:13:49;;;;;;;3.78;1.48;;;;;;;;;;5099116;28;20031;-82
2021/05/02 03:16:18;;;;;;;6.85;2.13;;;;;;;;;;5099966;28;20398;-82
2021/05/02 03:19:13;;;;;;;8.30;3.10;;;;;;;;;;5099925;28;20469;-83
2021/05/02 03:22:02;;;;;;;4.90;2.22;;;;;;;;;;5021367;28;20041;-81
2021/05/02 03:24:31;;;;;;;5.63;3.15;;;;;;;;;;4978952;28;20042;-82
2021/05/02 03:27:02;;;;;;;5.63;2.47;;;;;;;;;;4978563;28;20062;-82
2021/05/02 03:29:36;;;;;;;9.48;3.67;;;;;;;;;;4978659;28;20031;-82
2021/05/02 03:32:05;;;;;;;5.43;2.63;;;;;;;;;;4978676;28;20031;-81
2021/05/02 03:34:32;;;;;;;5.38;2.00;;;;;;;;;;4978589;28;20077;-83
2021/05/02 03:37:00;;;;;;;5.70;2.47;;;;;;;;;;4978744;28;20046;-83
2021/05/02 03:39:26;;;;;;;6.38;2.38;;;;;;;;;;4978723;28;20035;-83
2021/05/02 03:41:52;;;;;;;8.00;2.63;;;;;;;;;;4978707;28;20113;-82
2021/05/02 03:44:18;;;;;;;3.42;1.60;;;;;;;;;;4978188;28;20105;-82
2021/05/02 03:46:44;;;;;;;7.20;2.17;;;;;;;;;;4978525;28;20073;-81
2021/05/02 03:49:10;;;;;;;6.25;2.75;;;;;;;;;;4978454;28;20037;-82
2021/05/02 03:51:38;;;;;;;5.93;2.03;;;;;;;;;;4978439;28;20031;-82
2021/05/02 03:54:04;;;;;;;7.32;2.35;;;;;;;;;;4962461;28;20039;-81
2021/05/02 03:56:32;;;;;;;5.30;2.00;;;;;;;;;;4978245;28;20022;-81
2021/05/02 03:59:08;;;;;;;6.85;2.50;;;;;;;;;;5048291;28;20029;-81
2021/05/02 04:01:34;;;;;;;10.70;2.95;;;;;;;;;;5079290;28;20364;-81
2021/05/02 04:04:00;;;;;;;6.20;3.13;;;;;;;;;;5098979;28;20020;-82
2021/05/02 04:06:27;;;;;;;11.93;5.30;;;;;;;;;;5098135;28;20016;-82
2021/05/02 04:08:53;;;;;;;6.97;2.60;;;;;;;;;;5098677;28;20020;-81
2021/05/02 04:11:20;;;;;;;8.35;2.47;;;;;;;;;;5097376;28;20367;-80
2021/05/02 04:13:47;;;;;;;7.55;2.72;;;;;;;;;;5098992;28;20032;-81
2021/05/02 04:16:17;;;;;;;8.93;5.22;;;;;;;;;;5099153;28;20088;-82
2021/05/02 04:18:43;;;;;;;11.05;4.30;;;;;;;;;;5098982;28;20024;-82
2021/05/02 04:21:12;;;;;;;11.40;4.70;;;;;;;;;;5098081;28;20046;-81
2021/05/02 04:23:38;;;;;;;11.00;5.00;;;;;;;;;;5098619;28;20032;-81
2021/05/02 04:26:05;;;;;;;8.70;4.38;;;;;;;;;;5098497;28;20031;-80
2021/05/02 04:28:31;;;;;;;7.05;3.97;;;;;;;;;;5098658;28;20028;-80
2021/05/02 04:30:57;;;;;;;10.90;5.07;;;;;;;;;;5097204;28;20321;-82
2021/05/02 04:33:23;;;;;;;14.35;5.97;;;;;;;;;;5098606;28;20287;-82
2021/05/02 04:35:49;;;;;;;9.23;3.95;;;;;;;;;;5098601;28;20069;-82
2021/05/02 04:38:15;;;;;;;8.77;3.22;;;;;;;;;;5098353;28;20110;-82
2021/05/02 04:40:41;;;;;;;8.10;3.67;;;;;;;;;;5098308;28;20081;-82
2021/05/02 04:43:09;;;;;;;10.13;4.57;;;;;;;;;;5097364;28;20114;-83
2021/05/02 04:45:35;;;;;;;5.60;2.67;;;;;;;;;;5096932;28;20433;-82
2021/05/02 04:48:03;;;;;;;11.75;4.90;;;;;;;;;;5098124;28;20031;-82
2021/05/02 04:50:29;;;;;;;8.90;4.10;;;;;;;;;;5098286;28;20024;-82
2021/05/02 04:52:55;;;;;;;10.48;5.18;;;;;;;;;;5098190;28;20153;-82
2021/05/02 04:55:21;;;;;;;11.90;3.95;;;;;;;;;;5098004;28;20028;-81
2021/05/02 04:57:47;;;;;;;10.32;2.80;;;;;;;;;;5098006;28;20028;-82
2021/05/02 05:00:13;;;;;;;6.05;2.75;;;;;;;;;;5097812;28;20028;-83
2021/05/02 05:02:39;;;;;;;13.15;5.68;;;;;;;;;;5097593;28;20032;-83
2021/05/02 05:05:05;;;;;;;10.27;4.35;;;;;;;;;;5098109;28;20032;-83
2021/05/02 05:07:31;;;;;;;13.77;12.35;;;;;;;;;;5098300;28;20020;-83
2021/05/02 05:09:57;;;;;;;32.67;29.27;;;;;;;;;;5096847;28;20023;-83
2021/05/02 05:12:24;;;;;;;52.05;46.45;;;;;;;;;;5097971;28;20016;-82
2021/05/02 05:14:50;;;;;;;24.33;17.73;;;;;;;;;;5097573;28;20047;-83
2021/05/02 05:17:16;;;;;;;14.55;12.25;;;;;;;;;;5098009;28;20028;-82
2021/05/02 05:19:42;;;;;;;11.63;7.72;;;;;;;;;;5097716;28;20024;-81
2021/05/02 05:22:08;;;;;;;13.82;5.90;;;;;;;;;;5097798;28;20024;-81
2021/05/02 05:24:34;;;;;;;12.32;5.88;;;;;;;;;;5097491;28;20031;-83
2021/05/02 05:27:00;;;;;;;24.20;12.75;;;;;;;;;;5096421;28;20032;-83
2021/05/02 05:29:26;;;;;;;27.02;15.45;;;;;;;;;;5097911;28;20021;-83
2021/05/02 05:31:52;;;;;;;22.90;11.35;;;;;;;;;;5097686;28;20031;-80
2021/05/02 05:34:18;;;;;;;23.35;12.68;;;;;;;;;;5097477;28;20042;-80
2021/05/02 05:36:44;;;;;;;48.33;28.80;;;;;;;;;;5097430;28;20021;-82
2021/05/02 05:39:10;;;;;;;27.95;13.57;;;;;;;;;;5097378;28;20016;-82
2021/05/02 05:41:36;;;;;;;18.92;10.32;;;;;;;;;;5097308;28;20051;-82
2021/05/02 05:44:02;;;;;;;24.67;10.98;;;;;;;;;;5096101;28;20072;-82
2021/05/02 05:46:28;;;;;;;20.75;13.77;;;;;;;;;;5097448;28;20024;-82
2021/05/02 05:48:55;;;;;;;25.30;12.38;;;;;;;;;;5097426;28;20028;-82
2021/05/02 05:51:21;;;;;;;22.60;12.27;;;;;;;;;;5097281;28;20035;-81
2021/05/02 05:53:47;;;;;;;23.70;12.32;;;;;;;;;;5095799;28;20028;-81
2021/05/02 05:56:13;;;;;;;22.98;13.00;;;;;;;;;;5095830;28;20069;-81
2021/05/02 05:58:39;;;;;;;28.42;12.32;;;;;;;;;;5096916;28;20067;-81
2021/05/02 06:01:05;;;;;;;23.83;12.60;;;;;;;;;;5097318;28;20020;-83
2021/05/02 06:03:31;;;;;;;23.60;13.73;;;;;;;;;;5097254;28;20020;-82
2021/05/02 06:05:57;;;;;;;20.05;10.48;;;;;;;;;;5095882;28;20035;-82
2021/05/02 06:08:24;;;;;;;19.52;9.43;;;;;;;;;;5096948;28;20103;-82
2021/05/02 06:10:50;;;;;;;23.02;9.60;;;;;;;;;;5097193;28;20099;-82
2021/05/02 06:13:18;;;;;;;15.65;5.50;;;;;;;;;;5097057;28;20031;-82
2021/05/02 06:15:44;;;;;;;17.05;4.03;;;;;;;;;;5096805;28;20032;-83
2021/05/02 06:18:10;;;;;;;10.70;4.60;;;;;;;;;;5097420;28;20032;-82
2021/05/02 06:20:36;;;;;;;12.48;4.75;;;;;;;;;;5096096;28;20056;-82
2021/05/02 06:23:02;;;;;;;14.25;5.68;;;;;;;;;;5097285;28;20077;-84
2021/05/02 06:25:28;;;;;;;11.02;5.07;;;;;;;;;;5097120;28;20035;-82
2021/05/02 06:27:56;;;;;;;14.90;6.82;;;;;;;;;;5099512;28;20028;-82
2021/05/02 06:30:23;;;;;;;11.20;4.65;;;;;;;;;;5100949;28;20059;-82
2021/05/02 06:32:49;;;;;;;34.78;19.38;;;;;;;;;;5101702;28;20454;-81
2021/05/02 06:35:15;;;;;;;87.63;60.80;;;;;;;;;;5101501;28;20044;-82
2021/05/02 06:37:41;;;;;;;64.05;42.33;;;;;;;;;;5093181;28;20012;-84
2021/05/02 06:40:07;;;;;;;21.70;10.73;;;;;;;;;;5080695;28;20028;-84
2021/05/02 06:42:33;;;;;;;41.65;23.98;;;;;;;;;;5115793;28;20057;-80
2021/05/02 06:45:00;;;;;;;21.73;11.95;;;;;;;;;;5103801;28;20083;-81
2021/05/02 06:47:26;;;;;;;33.60;20.60;;;;;;;;;;5080120;28;20021;-81
2021/05/02 06:49:52;;;;;;;14.50;6.57;;;;;;;;;;5082150;28;20032;-81
2021/05/02 06:52:18;;;;;;;23.35;11.82;;;;;;;;;;5081571;28;20029;-81
2021/05/02 06:54:45;;;;;;;24.38;11.20;;;;;;;;;;5079934;28;20035;-81
2021/05/02 06:57:11;;;;;;;39.45;24.15;;;;;;;;;;5080399;28;20044;-80
2021/05/02 06:59:37;;;;;;;22.75;6.90;;;;;;;;;;5097763;28;20107;-81
2021/05/02 07:02:04;;;;;;;27.75;12.65;;;;;;;;;;5099133;28;20043;-81
2021/05/02 07:04:34;;;;;;;28.73;13.43;;;;;;;;;;5094515;28;20036;-82
2021/05/02 07:07:00;;;;;;;22.45;7.50;;;;;;;;;;5080005;28;20303;-82
2021/05/02 07:09:26;;;;;;;26.77;14.40;;;;;;;;;;5079148;28;20017;-82
2021/05/02 07:11:52;;;;;;;17.52;5.70;;;;;;;;;;5079831;28;20101;-82
2021/05/02 07:14:18;;;;;;;18.27;4.18;;;;;;;;;;5079587;28;20056;-81
2021/05/02 07:16:44;;;;;;;15.75;4.28;;;;;;;;;;5079487;28;20016;-81
2021/05/02 07:19:12;;;;;;;17.27;6.20;;;;;;;;;;5079513;28;20299;-81
2021/05/02 07:21:38;;;;;;;16.10;6.47;;;;;;;;;;5079037;28;20017;-79
2021/05/02 07:24:04;;;;;;;15.82;7.95;;;;;;;;;;5079466;28;20021;-79
2021/05/02 07:26:30;;;;;;;16.02;5.57;;;;;;;;;;5078257;28;20033;-81
2021/05/02 07:28:56;;;;;;;14.07;5.93;;;;;;;;;;5079340;28;20048;-80
2021/05/02 07:31:22;;;;;;;10.50;2.50;;;;;;;;;;5079361;28;20029;-81
2021/05/02 07:33:48;;;;;;;16.27;3.80;;;;;;;;;;5079194;28;20440;-80
2021/05/02 07:36:15;;;;;;;6.53;2.42;;;;;;;;;;5079400;28;20032;-81
2021/05/02 07:38:42;;;;;;;14.57;2.78;;;;;;;;;;5078976;28;20028;-81
2021/05/02 07:41:08;;;;;;;11.68;2.70;;;;;;;;;;5078134;28;20043;-81
2021/05/02 07:43:34;;;;;;;16.10;4.70;;;;;;;;;;5077647;28;20407;-79
2021/05/02 07:46:03;;;;;;;15.23;6.40;;;;;;;;;;5078944;28;20035;-80
2021/05/02 07:48:30;;;;;;;16.13;6.05;;;;;;;;;;5078002;28;20032;-80
2021/05/02 07:50:56;;;;;;;15.68;4.68;;;;;;;;;;5077992;28;20024;-80
2021/05/02 07:53:22;;;;;;;15.13;7.10;;;;;;;;;;5079128;28;20041;-82
2021/05/02 07:55:49;;;;;;;15.20;5.03;;;;;;;;;;5078476;28;20427;-81
2021/05/02 07:58:15;;;;;;;18.58;9.38;;;;;;;;;;5078740;28;20078;-81
2021/05/02 08:00:41;;;;;;;14.85;4.20;;;;;;;;;;5077565;28;20031;-81
2021/05/02 08:03:07;;;;;;;14.00;4.63;;;;;;;;;;5078836;28;20020;-81
2021/05/02 08:05:33;;;;;;;21.30;5.70;;;;;;;;;;5078576;28;20028;-80
2021/05/02 08:07:59;;;;;;;14.88;4.03;;;;;;;;;;5078582;28;20012;-79
2021/05/02 08:10:26;;;;;;;17.83;5.30;;;;;;;;;;5077232;28;20025;-80
2021/05/02 08:12:53;;;;;;;12.88;3.55;;;;;;;;;;5078530;28;20012;-81
2021/05/02 08:15:19;;;;;;;15.32;3.97;;;;;;;;;;5078343;28;20033;-81
2021/05/02 08:17:46;;;;;;;11.25;3.08;;;;;;;;;;5078500;28;20032;-80
2021/05/02 08:20:12;;;;;;;18.33;5.20;;;;;;;;;;5078403;28;20025;-81
2021/05/02 08:22:38;;;;;;;18.63;5.60;;;;;;;;;;5078078;28;20450;-81
2021/05/02 08:25:05;;;;;;;15.57;3.63;;;;;;;;;;5077067;28;20032;-80
2021/05/02 08:27:31;;;;;;;19.15;3.95;;;;;;;;;;5077248;28;20063;-80
2021/05/02 08:29:58;;;;;;;13.82;3.95;;;;;;;;;;5078061;28;20489;-80
2021/05/02 08:32:24;;;;;;;15.35;3.53;;;;;;;;;;5078100;28;20021;-80
2021/05/02 08:34:50;;;;;;;20.23;4.32;;;;;;;;;;5077996;28;20024;-79
2021/05/02 08:37:16;;;;;;;16.90;4.90;;;;;;;;;;5077999;28;20501;-80
2021/05/02 08:39:42;;;;;;;19.27;4.55;;;;;;;;;;5077857;28;20429;-80
2021/05/02 08:42:08;;;;;;;14.07;3.25;;;;;;;;;;5077891;28;20108;-80
2021/05/02 08:44:34;;;;;;;17.67;6.22;;;;;;;;;;5077652;28;20485;-81
2021/05/02 08:47:01;;;;;;;17.45;7.15;;;;;;;;;;5077803;28;20072;-83
2021/05/02 08:49:27;;;;;;;22.85;6.90;;;;;;;;;;5077254;28;20016;-79
2021/05/02 08:51:54;;;;;;;13.07;3.13;;;;;;;;;;5077513;28;20023;-79
2021/05/02 08:54:20;;;;;;;21.95;8.30;;;;;;;;;;5081908;28;20069;-78
2021/05/02 08:56:46;;;;;;;16.50;5.05;;;;;;;;;;5085695;28;20020;-79
2021/05/02 08:59:13;;;;;;;22.38;5.55;;;;;;;;;;5087295;28;20017;-79
2021/05/02 09:01:40;;;;;;;46.45;31.85;;;;;;;;;;5083140;28;20020;-78
2021/05/02 09:04:07;;;;;;;13.75;5.75;;;;;;;;;;5090734;28;20473;-77
2021/05/02 09:06:34;;;;;;;22.88;7.63;;;;;;;;;;5098208;28;20350;-78
2021/05/02 09:09:07;;;;;;;28.02;7.95;;;;;;;;;;5078758;28;20037;-77
2021/05/02 09:11:33;;;;;;;16.38;3.85;;;;;;;;;;5077290;28;20017;-78
2021/05/02 09:14:01;;;;;;;18.00;4.85;;;;;;;;;;5077080;28;20037;-78
2021/05/02 09:16:28;;;;;;;18.85;4.10;;;;;;;;;;5093441;28;20133;-78
2021/05/02 09:19:00;;;;;;;17.70;2.95;;;;;;;;;;5097867;28;20106;-78
2021/05/02 09:21:27;;;;;;;19.00;3.78;;;;;;;;;;5095309;28;20020;-78
2021/05/02 09:23:54;;;;;;;22.20;4.63;;;;;;;;;;5086875;28;20055;-78
2021/05/02 09:26:25;;;;;;;16.98;4.95;;;;;;;;;;5088282;28;21399;-78
2021/05/02 09:28:56;;;;;;;24.95;6.78;;;;;;;;;;5086674;28;20016;-78
2021/05/02 09:31:29;;;;;;;22.02;4.55;;;;;;;;;;5085743;28;20028;-78
2021/05/02 09:34:09;;;;;;;20.45;3.63;;;;;;;;;;5088617;28;20039;-78
2021/05/02 09:36:37;;;;;;;13.23;2.78;;;;;;;;;;5076764;28;20025;-78
2021/05/02 09:39:03;;;;;;;12.48;3.17;;;;;;;;;;5076965;28;20021;-77
2021/05/02 09:41:30;;;;;;;15.93;4.15;;;;;;;;;;5076943;28;20031;-77
2021/05/02 09:43:58;;;;;;;20.58;4.68;;;;;;;;;;5076790;28;20082;-78
2021/05/02 09:46:32;;;;;;;15.75;3.80;;;;;;;;;;5076702;28;20374;-78
2021/05/02 09:49:01;;;;;;;19.67;4.63;;;;;;;;;;5075686;28;20032;-78
2021/05/02 09:51:28;;;;;;;22.45;4.30;;;;;;;;;;5076767;28;20450;-78
2021/05/02 09:54:06;;;;;;;14.75;3.10;;;;;;;;;;5076707;28;20059;-78
2021/05/02 09:56:33;;;;;;;17.55;5.97;;;;;;;;;;5076779;28;20035;-78
2021/05/02 09:59:00;;;;;;;17.17;4.63;;;;;;;;;;5076829;28;20108;-76
2021/05/02 10:01:26;;;;;;;19.77;3.88;;;;;;;;;;5078467;28;20036;-77
2021/05/02 10:03:53;;;;;;;19.65;4.13;;;;;;;;;;5091728;28;20039;-78
2021/05/02 10:06:35;;;;;;;21.27;3.25;;;;;;;;;;5100852;28;20020;-77
2021/05/02 10:09:06;;;;;;;19.08;3.72;;;;;;;;;;5100753;28;20406;-78
2021/05/02 10:11:32;;;;;;;15.02;3.28;;;;;;;;;;5100994;28;20019;-77
2021/05/02 10:13:59;;;;;;;16.95;3.85;;;;;;;;;;5100611;28;20035;-77
2021/05/02 10:16:25;;;;;;;21.90;3.70;;;;;;;;;;5101713;28;20035;-77
2021/05/02 10:18:52;;;;;;;19.90;3.65;;;;;;;;;;5101549;28;20070;-77
2021/05/02 10:21:18;;;;;;;17.25;2.95;;;;;;;;;;5101668;28;20117;-77
2021/05/02 10:23:45;;;;;;;19.85;4.22;;;;;;;;;;5101251;28;20024;-77
2021/05/02 10:26:11;;;;;;;19.20;3.47;;;;;;;;;;5101213;28;20028;-77
2021/05/02 10:28:38;;;;;;;21.88;3.60;;;;;;;;;;5100818;28;20044;-77
2021/05/02 10:31:06;;;;;;;26.80;4.50;;;;;;;;;;5101227;28;20474;-78
2021/05/02 10:33:37;;;;;;;26.52;5.68;;;;;;;;;;5099365;28;20443;-77
2021/05/02 10:36:05;;;;;;;25.90;3.90;;;;;;;;;;5100853;28;20038;-77
2021/05/02 10:38:49;;;;;;;26.15;5.60;;;;;;;;;;5100547;28;20052;-78
2021/05/02 10:41:33;;;;;;;22.20;5.03;;;;;;;;;;5100606;28;20031;-77
2021/05/02 10:44:20;;;;;;;24.48;3.55;;;;;;;;;;5100189;28;20539;-77
2021/05/02 10:46:57;;;;;;;18.17;3.92;;;;;;;;;;5100466;28;20035;-78
2021/05/02 10:49:23;;;;;;;20.67;3.97;;;;;;;;;;5099276;28;20485;-78
2021/05/02 10:51:50;;;;;;;21.38;4.68;;;;;;;;;;5100190;28;20062;-77
2021/05/02 10:54:21;;;;;;;28.48;3.83;;;;;;;;;;5099281;28;20138;-77
2021/05/02 10:56:49;;;;;;;19.45;3.58;;;;;;;;;;5100310;28;20016;-77
2021/05/02 10:59:15;;;;;;;23.50;3.70;;;;;;;;;;5100183;28;20405;-77
2021/05/02 11:01:42;;;;;;;25.55;4.70;;;;;;;;;;5099987;28;20103;-78
2021/05/02 11:04:08;;;;;;;24.17;4.72;;;;;;;;;;5100130;28;20048;-77
2021/05/02 11:06:41;;;;;;;21.23;3.80;;;;;;;;;;5098335;28;20369;-77
2021/05/02 11:09:16;;;;;;;23.60;3.42;;;;;;;;;;5098643;28;20032;-77
2021/05/02 11:11:45;;;;;;;23.73;3.83;;;;;;;;;;5101104;28;20027;-78
2021/05/02 11:14:12;;;;;;;27.05;5.72;;;;;;;;;;5099919;28;20028;-77
2021/05/02 11:16:40;;;;;;;22.65;5.10;;;;;;;;;;5099812;28;20035;-78
2021/05/02 11:19:07;;;;;;;24.85;5.53;;;;;;;;;;5099614;28;20028;-78
2021/05/02 11:21:51;;;;;;;26.20;4.45;;;;;;;;;;5099558;28;20031;-77
2021/05/02 11:24:18;;;;;;;20.08;3.85;;;;;;;;;;5098435;28;20057;-77
2021/05/02 11:41:01;;;;;;;28.27;4.85;;;;;;;;;;5135399;27;20869;-79
2021/05/02 11:43:29;;;;;;;29.35;5.82;;;;;;;;;;5135306;28;20027;-83
2021/05/02 11:45:55;;;;;;;24.77;4.90;;;;;;;;;;5135295;28;20106;-79
2021/05/02 11:48:21;;;;;;;23.42;4.32;;;;;;;;;;5135126;28;20072;-79
2021/05/02 11:50:48;;;;;;;25.40;4.63;;;;;;;;;;5135448;28;20015;-79
2021/05/02 11:53:14;;;;;;;28.08;4.95;;;;;;;;;;5135176;28;20020;-79
2021/05/02 11:55:42;;;;;;;25.83;4.63;;;;;;;;;;5123269;27;20026;-79
2021/05/02 11:58:08;;;;;;;18.77;4.55;;;;;;;;;;5151466;27;20119;-79
2021/05/02 12:00:37;;;;;;;27.35;4.13;;;;;;;;;;5156023;27;20034;-79
2021/05/02 12:03:04;;;;;;;24.02;4.47;;;;;;;;;;5155830;27;20026;-79
2021/05/02 12:05:30;;;;;;;20.00;3.85;;;;;;;;;;5155805;27;20019;-79
2021/05/02 12:08:12;;;;;;;17.85;3.50;;;;;;;;;;5155766;27;20023;-79
2021/05/02 12:10:39;;;;;;;23.85;3.97;;;;;;;;;;5155728;27;20039;-79
2021/05/02 12:13:05;;;;;;;19.77;4.53;;;;;;;;;;5155734;27;20027;-79
2021/05/02 12:15:33;;;;;;;17.20;3.00;;;;;;;;;;5155999;27;20027;-79
2021/05/02 12:17:59;;;;;;;18.17;3.88;;;;;;;;;;5155707;27;20476;-79
2021/05/02 12:20:25;;;;;;;21.20;3.85;;;;;;;;;;5155436;27;20023;-79
2021/05/02 12:22:51;;;;;;;15.52;3.70;;;;;;;;;;5155160;27;20116;-79
2021/05/02 12:25:18;;;;;;;18.38;3.80;;;;;;;;;;5155043;27;20068;-78
2021/05/02 12:27:57;;;;;;;23.63;3.53;;;;;;;;;;5119277;27;20020;-79
2021/05/02 12:30:23;;;;;;;17.58;2.97;;;;;;;;;;5112778;28;20042;-79
2021/05/02 12:32:49;;;;;;;21.33;3.70;;;;;;;;;;5113675;28;20316;-79
2021/05/02 12:35:16;;;;;;;14.95;3.08;;;;;;;;;;5113901;28;20290;-79
2021/05/02 12:37:42;;;;;;;17.08;3.00;;;;;;;;;;5118175;28;20106;-79
2021/05/02 12:40:08;;;;;;;19.38;3.78;;;;;;;;;;5129620;28;20048;-79
2021/05/02 12:42:36;;;;;;;16.98;3.42;;;;;;;;;;5120554;28;20164;-79
2021/05/02 12:45:03;;;;;;;18.23;4.90;;;;;;;;;;5120228;28;20457;-79
2021/05/02 12:47:30;;;;;;;20.50;4.50;;;;;;;;;;5118764;28;20040;-79
2021/05/02 12:49:58;;;;;;;28.83;6.50;;;;;;;;;;5120210;28;20020;-79
2021/05/02 12:52:34;;;;;;;19.10;4.47;;;;;;;;;;5119061;28;20031;-79
2021/05/02 12:55:20;;;;;;;18.88;5.25;;;;;;;;;;5118898;28;20026;-79
2021/05/02 12:58:07;;;;;;;19.88;6.90;;;;;;;;;;5119041;28;20016;-79
2021/05/02 13:03:19;;;;;;;54.10;29.98;;;;;;;;;;5120051;28;20134;-79
2021/05/02 13:06:00;;;;;;;28.95;9.68;;;;;;;;;;5118860;28;20032;-79
2021/05/02 13:08:26;;;;;;;25.52;7.97;;;;;;;;;;5119901;28;20028;-79
2021/05/02 13:10:52;;;;;;;40.45;21.10;;;;;;;;;;5119987;28;20031;-79
2021/05/02 13:13:21;;;;;;;58.10;45.80;;;;;;;;;;5119640;28;20027;-79
2021/05/02 13:15:49;;;;;;;30.63;12.38;;;;;;;;;;5119712;28;20093;-79
2021/05/02 13:18:21;;;;;;;24.17;5.88;;;;;;;;;;5118891;28;20538;-82
2021/05/02 13:20:52;;;;;;;15.18;4.55;;;;;;;;;;5119961;28;20106;-82
2021/05/02 13:23:27;;;;;;;18.85;3.47;;;;;;;;;;5119587;28;20470;-82
2021/05/02 13:26:10;;;;;;;21.67;4.45;;;;;;;;;;5118516;28;20034;-82
2021/05/02 13:28:39;;;;;;;19.65;3.88;;;;;;;;;;5118101;28;20038;-82
2021/05/02 13:31:07;;;;;;;20.17;4.38;;;;;;;;;;5117997;28;20027;-84
2021/05/02 13:33:33;;;;;;;16.60;3.95;;;;;;;;;;5119589;27;20055;-81
2021/05/02 13:35:59;;;;;;;19.48;3.60;;;;;;;;;;5119573;28;20098;-82
2021/05/02 13:38:26;;;;;;;18.08;3.35;;;;;;;;;;5119130;28;20024;-81
2021/05/02 13:40:52;;;;;;;18.25;4.00;;;;;;;;;;5118575;28;20051;-82
2021/05/02 13:43:18;;;;;;;19.42;3.65;;;;;;;;;;5119069;28;20047;-81
2021/05/02 13:45:44;;;;;;;19.58;3.53;;;;;;;;;;5118238;28;20024;-82
2021/05/02 13:48:14;;;;;;;17.85;3.33;;;;;;;;;;5119155;28;20098;-82
2021/05/02 13:50:41;;;;;;;17.25;3.50;;;;;;;;;;5119280;28;20020;-82
2021/05/02 13:53:07;;;;;;;19.58;4.50;;;;;;;;;;5118240;28;20024;-82
2021/05/02 13:55:33;;;;;;;17.02;3.33;;;;;;;;;;5118984;28;20112;-83
2021/05/02 13:57:59;;;;;;;17.90;3.70;;;;;;;;;;5119140;28;20069;-84
2021/05/02 14:00:26;;;;;;;18.83;5.00;;;;;;;;;;5118868;28;20027;-82
2021/05/02 14:02:52;;;;;;;18.05;4.13;;;;;;;;;;5118828;28;20024;-85
2021/05/02 14:05:18;;;;;;;21.60;4.28;;;;;;;;;;5118560;27;20443;-85
2021/05/02 14:07:45;;;;;;;25.02;4.18;;;;;;;;;;5121642;27;20023;-83
2021/05/02 14:10:12;;;;;;;21.75;5.03;;;;;;;;;;5139227;27;20035;-82
2021/05/02 14:12:38;;;;;;;21.50;4.45;;;;;;;;;;5138583;27;20030;-85
2021/05/02 14:15:05;;;;;;;23.95;5.38;;;;;;;;;;5126861;27;20023;-84
2021/05/02 14:17:31;;;;;;;36.22;16.45;;;;;;;;;;5112408;28;20069;-83
2021/05/02 14:19:57;;;;;;;19.73;4.20;;;;;;;;;;5115766;27;20039;-82
2021/05/02 14:22:25;;;;;;;20.23;5.30;;;;;;;;;;5116091;28;20364;-83
2021/05/02 14:24:51;;;;;;;27.63;10.27;;;;;;;;;;5118587;28;20032;-82
2021/05/02 14:27:17;;;;;;;24.00;4.80;;;;;;;;;;5118504;28;20027;-83
2021/05/02 14:29:44;;;;;;;20.13;4.30;;;;;;;;;;5113165;28;20061;-83
2021/05/02 14:32:10;;;;;;;21.02;4.78;;;;;;;;;;5116976;27;20097;-82
2021/05/02 14:34:36;;;;;;;24.40;5.50;;;;;;;;;;5100554;28;20016;-83
2021/05/02 14:37:03;;;;;;;18.73;6.03;;;;;;;;;;5107367;28;20110;-82
2021/05/02 14:39:31;;;;;;;19.15;4.55;;;;;;;;;;5113688;28;20051;-83
2021/05/02 14:41:58;;;;;;;22.08;4.97;;;;;;;;;;5097840;28;20051;-83
2021/05/02 14:44:42;;;;;;;25.42;10.65;;;;;;;;;;5111173;28;20460;-82
2021/05/02 14:47:08;;;;;;;19.63;3.50;;;;;;;;;;5117642;28;20114;-83
2021/05/02 14:49:36;;;;;;;10.35;1.85;;;;;;;;;;5116252;28;20111;-82
2021/05/02 14:52:02;;;;;;;12.80;4.53;;;;;;;;;;5116629;28;20114;-84